Time;durP1;ratioP1;P1;durP2;ratioP2;P2;SDS_P1;SDS_P2;PMS_P1;PMS_P2;Temp;Humidity;BMP_temperature;BMP_pressure;BME280_temperature;BME280_humidity;BME280_pressure;Samples;Min_cycle;Max_cycle;Signal;HPM_P1;HPM_P2
2021/03/10 00:00:22;;;;;;;6.22;3.33;;;9.50;99.90;;;;;;5075083;28;20629;-76
2021/03/10 00:02:48;;;;;;;3.35;2.63;;;9.30;99.90;;;;;;5074790;28;20202;-76
2021/03/10 00:05:14;;;;;;;3.42;3.13;;;9.30;99.90;;;;;;5074642;28;20190;-76
2021/03/10 00:07:40;;;;;;;6.75;3.17;;;9.20;99.90;;;;;;5074313;28;20190;-76
2021/03/10 00:10:09;;;;;;;5.85;3.97;;;9.40;99.90;;;;;;5074667;28;20212;-77
2021/03/10 00:12:35;;;;;;;2.45;2.25;;;9.60;99.90;;;;;;5074680;28;20162;-78
2021/03/10 00:15:01;;;;;;;11.02;4.70;;;9.30;99.90;;;;;;5074717;28;20577;-77
2021/03/10 00:17:27;;;;;;;3.47;2.45;;;9.10;99.90;;;;;;5074140;28;20201;-77
2021/03/10 00:19:52;;;;;;;4.50;2.67;;;8.90;99.90;;;;;;5075242;28;20206;-76
2021/03/10 00:22:18;;;;;;;28.70;2.80;;;9.00;99.90;;;;;;5074766;28;20633;-76
2021/03/10 00:24:43;;;;;;;5.30;3.42;;;9.10;99.90;;;;;;5074341;28;20250;-76
2021/03/10 00:27:09;;;;;;;1.85;1.75;;;9.00;99.90;;;;;;5074335;28;20236;-76
2021/03/10 00:29:35;;;;;;;2.95;2.28;;;8.90;99.90;;;;;;5074234;28;20189;-75
2021/03/10 00:32:00;;;;;;;11.00;4.25;;;8.90;99.90;;;;;;5074258;28;20174;-76
2021/03/10 00:34:26;;;;;;;7.28;2.13;;;8.80;99.90;;;;;;5074290;28;20645;-77
2021/03/10 00:36:52;;;;;;;5.13;1.73;;;8.90;99.90;;;;;;5074381;28;20179;-77
2021/03/10 00:39:17;;;;;;;3.72;3.35;;;8.80;99.90;;;;;;5074380;28;20583;-77
2021/03/10 00:41:43;;;;;;;8.05;3.70;;;8.80;99.90;;;;;;5074058;28;20703;-77
2021/03/10 00:44:09;;;;;;;23.15;3.72;;;8.80;99.90;;;;;;5073949;28;20553;-77
2021/03/10 00:46:34;;;;;;;7.93;4.65;;;8.80;99.90;;;;;;5073804;28;20547;-76
2021/03/10 00:49:00;;;;;;;9.13;3.67;;;8.80;99.90;;;;;;5074323;28;20347;-77
2021/03/10 00:51:25;;;;;;;8.35;5.40;;;8.80;99.90;;;;;;5073967;28;20202;-77
2021/03/10 00:53:51;;;;;;;6.15;3.67;;;8.60;99.90;;;;;;5073863;28;20159;-77
2021/03/10 00:56:16;;;;;;;3.40;2.72;;;8.60;99.90;;;;;;5074262;28;20556;-77
2021/03/10 00:58:42;;;;;;;5.15;2.80;;;8.60;99.90;;;;;;5073786;28;20603;-76
2021/03/10 01:01:08;;;;;;;7.40;3.95;;;8.70;99.90;;;;;;5073862;28;20625;-77
2021/03/10 01:03:33;;;;;;;3.38;3.17;;;8.70;99.90;;;;;;5073777;28;20657;-76
2021/03/10 01:05:59;;;;;;;2.67;2.47;;;8.50;99.90;;;;;;5073606;28;20170;-77
2021/03/10 01:08:25;;;;;;;4.35;3.95;;;8.50;99.90;;;;;;5073509;28;20186;-77
2021/03/10 01:10:50;;;;;;;8.57;4.90;;;8.50;99.90;;;;;;5073618;28;20186;-77
2021/03/10 01:13:16;;;;;;;1.45;1.38;;;8.50;99.90;;;;;;5075209;28;20573;-77
2021/03/10 01:15:42;;;;;;;20.15;4.00;;;8.50;99.90;;;;;;5076157;28;20170;-77
2021/03/10 01:18:08;;;;;;;3.60;3.40;;;8.50;99.90;;;;;;5074873;28;20694;-77
2021/03/10 01:20:34;;;;;;;3.60;3.13;;;8.40;99.90;;;;;;5073901;28;20570;-77
2021/03/10 01:22:59;;;;;;;4.15;3.22;;;8.50;99.90;;;;;;5073653;28;20283;-76
2021/03/10 01:25:25;;;;;;;2.72;2.53;;;8.50;99.90;;;;;;5073562;28;20169;-77
2021/03/10 01:27:51;;;;;;;6.97;4.45;;;8.40;99.90;;;;;;5073595;28;20691;-78
2021/03/10 01:30:19;;;;;;;4.00;3.70;;;8.20;99.90;;;;;;5073149;28;20159;-78
2021/03/10 01:32:45;;;;;;;4.18;3.60;;;8.10;99.90;;;;;;5073324;28;20166;-77
2021/03/10 01:35:11;;;;;;;4.90;4.47;;;8.20;99.90;;;;;;5073418;28;20249;-77
2021/03/10 01:37:37;;;;;;;2.88;2.67;;;8.20;99.90;;;;;;5073012;28;20641;-77
2021/03/10 01:40:12;;;;;;;4.60;2.45;;;8.10;99.90;;;;;;5073716;28;20181;-77
2021/03/10 01:42:38;;;;;;;7.50;4.70;;;8.00;99.90;;;;;;5073174;28;20624;-77
2021/03/10 01:45:06;;;;;;;4.70;4.28;;;7.90;99.90;;;;;;5073621;28;20186;-77
2021/03/10 01:47:33;;;;;;;3.13;2.92;;;7.90;99.90;;;;;;5073149;28;20194;-77
2021/03/10 01:50:01;;;;;;;9.10;3.13;;;7.70;99.90;;;;;;5073895;28;20184;-77
2021/03/10 01:52:27;;;;;;;3.03;2.83;;;7.70;99.90;;;;;;5073779;28;20180;-77
2021/03/10 01:54:52;;;;;;;2.47;2.28;;;7.50;99.90;;;;;;5073542;28;20249;-78
2021/03/10 01:57:18;;;;;;;1.98;1.88;;;7.50;99.90;;;;;;5072603;28;20624;-77
2021/03/10 01:59:45;;;;;;;6.90;5.30;;;7.50;99.90;;;;;;5073279;28;20218;-77
2021/03/10 02:02:10;;;;;;;4.68;4.13;;;7.40;99.90;;;;;;5073400;28;20205;-76
2021/03/10 02:04:38;;;;;;;3.58;3.15;;;7.50;99.90;;;;;;5073275;28;20525;-78
2021/03/10 02:07:20;;;;;;;8.70;5.32;;;7.40;99.90;;;;;;5073410;28;20179;-77
2021/03/10 02:10:07;;;;;;;4.25;3.42;;;7.30;99.90;;;;;;5073495;28;20754;-77
2021/03/10 02:12:43;;;;;;;6.75;3.95;;;7.30;99.90;;;;;;5073315;28;20593;-77
2021/03/10 02:15:37;;;;;;;8.02;4.70;;;7.10;99.90;;;;;;5072873;28;20173;-77
2021/03/10 02:18:08;;;;;;;3.97;3.67;;;7.20;99.90;;;;;;5073111;28;20244;-76
2021/03/10 02:20:44;;;;;;;4.28;3.92;;;7.20;99.90;;;;;;5074499;28;20159;-77
2021/03/10 02:23:12;;;;;;;3.13;2.97;;;7.20;99.90;;;;;;5076174;28;20675;-77
2021/03/10 02:26:08;;;;;;;6.75;2.65;;;7.30;99.90;;;;;;5076680;28;20189;-76
2021/03/10 02:28:35;;;;;;;9.95;4.80;;;7.30;99.90;;;;;;5076435;28;20166;-77
2021/03/10 02:31:02;;;;;;;14.75;3.88;;;7.30;99.90;;;;;;5076612;28;20185;-77
2021/03/10 02:33:29;;;;;;;2.13;1.92;;;7.20;99.90;;;;;;5058752;28;20194;-76
2021/03/10 02:36:02;;;;;;;6.47;4.95;;;7.30;99.90;;;;;;5076525;28;20159;-76
2021/03/10 02:38:28;;;;;;;5.50;3.28;;;7.20;99.90;;;;;;5076630;28;20178;-77
2021/03/10 02:40:55;;;;;;;3.08;2.78;;;7.20;99.90;;;;;;5076234;28;20155;-78
2021/03/10 02:43:23;;;;;;;4.00;2.15;;;6.90;99.90;;;;;;5076377;28;20248;-78
2021/03/10 02:45:53;;;;;;;2.78;2.58;;;6.80;99.90;;;;;;5076282;28;20552;-76
2021/03/10 02:48:21;;;;;;;2.55;2.03;;;6.90;99.90;;;;;;5076480;28;20641;-78
2021/03/10 02:50:48;;;;;;;4.03;2.67;;;7.00;99.90;;;;;;5058059;28;20208;-77
2021/03/10 02:53:14;;;;;;;2.40;2.20;;;7.10;99.90;;;;;;5076222;28;20161;-78
2021/03/10 02:55:40;;;;;;;2.30;2.10;;;7.30;99.90;;;;;;5076363;28;20255;-76
2021/03/10 02:58:10;;;;;;;2.83;2.65;;;7.20;99.90;;;;;;5076075;28;20225;-78
2021/03/10 03:00:36;;;;;;;3.53;2.15;;;6.90;99.90;;;;;;5076129;28;20147;-77
2021/03/10 03:03:02;;;;;;;3.03;2.83;;;7.00;99.90;;;;;;5058058;28;20249;-76
2021/03/10 03:05:27;;;;;;;3.53;2.78;;;7.00;99.90;;;;;;5076033;28;20190;-78
2021/03/10 03:07:53;;;;;;;5.93;2.58;;;7.00;99.90;;;;;;5075992;28;20235;-77
2021/03/10 03:10:22;;;;;;;13.48;3.58;;;7.00;99.90;;;;;;5076518;28;20159;-77
2021/03/10 03:12:49;;;;;;;3.25;2.35;;;7.00;99.90;;;;;;5075961;28;20653;-78
2021/03/10 03:15:16;;;;;;;3.28;3.08;;;7.10;99.90;;;;;;5075977;28;20652;-78
2021/03/10 03:17:43;;;;;;;2.28;2.17;;;7.10;99.90;;;;;;5075229;28;20783;-78
2021/03/10 03:20:10;;;;;;;3.67;3.35;;;7.10;99.90;;;;;;5076070;28;20162;-78
2021/03/10 03:22:44;;;;;;;3.35;3.15;;;7.10;99.90;;;;;;5075810;28;20210;-77
2021/03/10 03:25:16;;;;;;;2.67;2.35;;;7.00;99.90;;;;;;5076260;28;20182;-78
2021/03/10 03:27:46;;;;;;;2.60;2.40;;;7.10;99.90;;;;;;5075431;28;20186;-78
2021/03/10 03:30:13;;;;;;;9.15;4.00;;;7.30;99.90;;;;;;5057839;28;20565;-77
2021/03/10 03:32:40;;;;;;;3.40;3.08;;;7.20;99.90;;;;;;5075678;28;20158;-78
2021/03/10 03:35:06;;;;;;;2.95;2.70;;;6.90;99.90;;;;;;5075443;28;20587;-77
2021/03/10 03:37:32;;;;;;;5.65;4.03;;;7.00;99.90;;;;;;5075871;28;20186;-77
2021/03/10 03:39:58;;;;;;;6.45;3.28;;;6.60;99.90;;;;;;5075395;28;20245;-77
2021/03/10 03:42:24;;;;;;;2.08;1.95;;;6.50;99.90;;;;;;5075347;28;20206;-77
2021/03/10 03:44:49;;;;;;;1.73;1.63;;;6.70;99.90;;;;;;5074851;28;20159;-77
2021/03/10 03:47:17;;;;;;;2.17;2.08;;;6.80;99.90;;;;;;5075466;28;20186;-76
2021/03/10 03:49:46;;;;;;;2.42;2.25;;;7.00;99.90;;;;;;5057473;28;20630;-78
2021/03/10 03:52:15;;;;;;;3.20;2.05;;;7.00;99.90;;;;;;5075200;28;20175;-76
2021/03/10 03:54:41;;;;;;;1.58;1.48;;;7.00;99.90;;;;;;5075084;28;20171;-76
2021/03/10 03:57:08;;;;;;;1.30;1.30;;;7.00;99.90;;;;;;5075195;28;20517;-76
2021/03/10 03:59:34;;;;;;;1.92;1.63;;;6.90;99.90;;;;;;5075345;28;20305;-76
2021/03/10 04:01:59;;;;;;;15.43;3.20;;;6.80;99.90;;;;;;5074554;28;20763;-78
2021/03/10 04:04:25;;;;;;;2.63;2.17;;;6.70;99.90;;;;;;5074946;28;20223;-75
2021/03/10 04:06:51;;;;;;;2.60;1.85;;;6.60;99.90;;;;;;5074895;28;20186;-76
2021/03/10 04:09:17;;;;;;;2.53;2.33;;;6.90;99.90;;;;;;5074760;28;20185;-77
2021/03/10 04:11:43;;;;;;;2.28;1.77;;;6.80;99.90;;;;;;5074636;28;20170;-77
2021/03/10 04:14:09;;;;;;;0.88;0.88;;;6.90;99.90;;;;;;5074840;28;20181;-77
2021/03/10 04:16:35;;;;;;;3.58;3.25;;;6.80;99.90;;;;;;5075163;28;20645;-76
2021/03/10 04:19:01;;;;;;;1.17;1.15;;;6.90;99.90;;;;;;5075310;28;20181;-77
2021/03/10 04:21:26;;;;;;;12.05;1.48;;;6.90;99.90;;;;;;5074481;28;20204;-76
2021/03/10 04:23:52;;;;;;;1.95;1.85;;;6.90;99.90;;;;;;5074534;28;20198;-77
2021/03/10 04:26:17;;;;;;;2.65;2.45;;;6.70;99.90;;;;;;5074111;28;20248;-76
2021/03/10 04:28:43;;;;;;;4.45;1.60;;;6.80;99.90;;;;;;5074091;28;20170;-77
2021/03/10 04:31:08;;;;;;;2.97;2.30;;;6.80;99.90;;;;;;5074135;28;20162;-77
2021/03/10 04:33:34;;;;;;;2.10;2.00;;;6.80;99.90;;;;;;5074048;28;20173;-77
2021/03/10 04:35:59;;;;;;;0.95;0.95;;;6.90;99.90;;;;;;5074400;28;20178;-77
2021/03/10 04:38:25;;;;;;;2.65;2.42;;;6.90;99.90;;;;;;5073691;28;20166;-76
2021/03/10 04:40:50;;;;;;;2.78;2.58;;;6.90;99.90;;;;;;5074533;28;20257;-76
2021/03/10 04:43:16;;;;;;;1.50;1.40;;;6.90;99.90;;;;;;5073717;28;20198;-76
2021/03/10 04:45:42;;;;;;;2.15;2.05;;;6.80;99.90;;;;;;5074291;28;20276;-77
2021/03/10 04:48:07;;;;;;;2.28;2.17;;;6.80;99.90;;;;;;5073643;28;20190;-78
2021/03/10 04:50:33;;;;;;;3.58;1.90;;;6.70;99.90;;;;;;5073700;28;20708;-76
2021/03/10 04:52:58;;;;;;;4.13;3.15;;;6.60;99.90;;;;;;5073737;28;20170;-76
2021/03/10 04:55:24;;;;;;;1.73;1.70;;;6.60;99.90;;;;;;5074271;28;20176;-76
2021/03/10 04:57:49;;;;;;;4.35;4.05;;;6.50;99.90;;;;;;5073281;28;20224;-78
2021/03/10 05:00:15;;;;;;;1.27;1.27;;;6.80;99.90;;;;;;5073836;28;20190;-77
2021/03/10 05:02:41;;;;;;;1.75;1.65;;;6.70;99.90;;;;;;5073752;28;20206;-78
2021/03/10 05:05:08;;;;;;;15.80;4.03;;;6.90;99.90;;;;;;5073633;28;20198;-76
2021/03/10 05:07:34;;;;;;;4.60;2.92;;;6.90;99.90;;;;;;5073397;28;20190;-77
2021/03/10 05:10:00;;;;;;;1.77;1.67;;;7.10;99.90;;;;;;5073221;28;20158;-77
2021/03/10 05:12:29;;;;;;;3.05;2.38;;;7.30;99.90;;;;;;5072758;28;20177;-77
2021/03/10 05:14:56;;;;;;;3.33;3.03;;;7.20;99.90;;;;;;5055564;28;20158;-78
2021/03/10 05:17:22;;;;;;;2.08;1.95;;;7.40;99.90;;;;;;5072865;28;20194;-77
2021/03/10 05:19:47;;;;;;;1.92;1.77;;;7.30;99.90;;;;;;5073619;28;20178;-77
2021/03/10 05:22:13;;;;;;;3.78;3.53;;;7.20;99.90;;;;;;5072997;28;20247;-78
2021/03/10 05:24:39;;;;;;;0.90;0.90;;;7.20;99.90;;;;;;5055204;28;20284;-78
2021/03/10 05:27:04;;;;;;;2.78;2.33;;;7.20;99.90;;;;;;5073647;28;20182;-77
2021/03/10 05:29:30;;;;;;;2.78;2.33;;;7.10;99.90;;;;;;5074230;28;20162;-77
2021/03/10 05:31:56;;;;;;;7.00;3.05;;;6.90;99.90;;;;;;5073112;28;20220;-77
2021/03/10 05:34:21;;;;;;;2.03;1.92;;;7.00;99.90;;;;;;5073339;28;20690;-77
2021/03/10 05:36:47;;;;;;;4.10;2.40;;;6.90;99.90;;;;;;5073735;28;20280;-77
2021/03/10 05:39:13;;;;;;;2.15;1.15;;;6.90;99.90;;;;;;5073272;28;20641;-78
2021/03/10 05:41:39;;;;;;;2.15;2.03;;;7.00;99.90;;;;;;5073042;28;20174;-77
2021/03/10 05:44:06;;;;;;;5.40;3.13;;;6.70;99.90;;;;;;5073505;28;20556;-77
2021/03/10 05:46:32;;;;;;;9.40;2.72;;;6.70;99.90;;;;;;5073593;28;20197;-77
2021/03/10 05:48:57;;;;;;;3.42;1.95;;;6.90;99.90;;;;;;5073708;28;20179;-77
2021/03/10 05:51:23;;;;;;;1.02;1.02;;;6.80;99.90;;;;;;5073222;28;20229;-77
2021/03/10 05:53:50;;;;;;;14.02;4.30;;;6.80;99.90;;;;;;5073597;28;20159;-77
2021/03/10 05:56:16;;;;;;;7.43;3.35;;;6.80;99.90;;;;;;5059327;28;20201;-77
2021/03/10 05:58:42;;;;;;;6.63;2.22;;;6.50;99.90;;;;;;5076876;28;20221;-76
2021/03/10 06:01:07;;;;;;;1.13;1.13;;;6.40;99.90;;;;;;5076908;28;20163;-77
2021/03/10 06:03:33;;;;;;;5.20;3.67;;;6.50;99.90;;;;;;5077078;28;20225;-77
2021/03/10 06:06:00;;;;;;;6.68;2.92;;;6.70;99.90;;;;;;5077091;28;20159;-76
2021/03/10 06:08:29;;;;;;;1.98;1.70;;;6.70;99.90;;;;;;5076883;28;20611;-76
2021/03/10 06:10:54;;;;;;;4.97;4.05;;;6.80;99.90;;;;;;5076735;28;20158;-76
2021/03/10 06:13:26;;;;;;;3.05;2.58;;;6.90;99.90;;;;;;5076934;28;20660;-76
2021/03/10 06:15:54;;;;;;;7.55;3.15;;;6.90;99.90;;;;;;5077141;28;20205;-77
2021/03/10 06:18:28;;;;;;;3.92;3.03;;;7.10;99.90;;;;;;5076759;28;20171;-77
2021/03/10 06:21:07;;;;;;;2.92;2.75;;;7.10;99.90;;;;;;5077026;28;20177;-77
2021/03/10 06:23:49;;;;;;;2.65;2.45;;;7.10;99.90;;;;;;5077001;28;20194;-79
2021/03/10 06:26:22;;;;;;;8.32;3.35;;;7.00;99.90;;;;;;5076566;28;20186;-77
2021/03/10 06:28:47;;;;;;;2.53;2.20;;;6.90;99.90;;;;;;5076998;28;20252;-76
2021/03/10 06:31:31;;;;;;;7.55;3.05;;;6.90;99.90;;;;;;5077725;28;20202;-76
2021/03/10 06:34:14;;;;;;;2.65;2.45;;;6.90;99.90;;;;;;5084000;28;20162;-76
2021/03/10 06:36:48;;;;;;;4.55;3.17;;;6.90;99.90;;;;;;5082427;28;20174;-76
2021/03/10 06:39:24;;;;;;;2.28;2.17;;;6.90;99.90;;;;;;5084225;28;20173;-77
2021/03/10 06:41:50;;;;;;;1.73;1.63;;;6.90;99.90;;;;;;5064728;28;20170;-77
2021/03/10 06:44:21;;;;;;;2.28;1.23;;;7.00;99.90;;;;;;5080857;28;20151;-76
2021/03/10 06:47:01;;;;;;;1.63;1.50;;;6.90;99.90;;;;;;5082912;28;20197;-76
2021/03/10 06:49:28;;;;;;;1.48;1.40;;;6.70;99.90;;;;;;5084439;28;20194;-76
2021/03/10 06:51:59;;;;;;;5.50;1.45;;;7.00;99.90;;;;;;5083470;28;20641;-76
2021/03/10 06:54:29;;;;;;;4.22;1.90;;;7.00;99.90;;;;;;5083096;28;20205;-75
2021/03/10 06:57:02;;;;;;;15.85;3.22;;;7.00;99.90;;;;;;5084163;28;20182;-76
2021/03/10 06:59:45;;;;;;;16.83;2.70;;;7.30;99.90;;;;;;5082116;28;20222;-76
2021/03/10 07:02:17;;;;;;;15.35;3.05;;;7.20;99.90;;;;;;5057285;28;20198;-76
2021/03/10 07:04:45;;;;;;;5.28;2.08;;;7.20;99.90;;;;;;5075007;28;20159;-76
2021/03/10 07:07:10;;;;;;;6.50;3.58;;;7.00;99.90;;;;;;5075066;28;20582;-77
2021/03/10 07:09:37;;;;;;;6.13;2.75;;;7.20;99.90;;;;;;5075416;28;20166;-77
2021/03/10 07:12:08;;;;;;;2.25;2.13;;;7.00;99.90;;;;;;5075032;28;20212;-77
2021/03/10 07:14:35;;;;;;;1.00;0.88;;;7.20;99.90;;;;;;5075594;28;20169;-76
2021/03/10 07:17:03;;;;;;;20.30;4.85;;;7.30;99.90;;;;;;5075417;28;20182;-77
2021/03/10 07:19:28;;;;;;;2.30;2.20;;;7.30;99.90;;;;;;5075865;28;20174;-78
2021/03/10 07:21:58;;;;;;;3.35;2.97;;;7.30;99.90;;;;;;5075154;28;20277;-76
2021/03/10 07:24:51;;;;;;;4.95;3.17;;;7.20;99.90;;;;;;5075029;28;20167;-76
2021/03/10 07:27:19;;;;;;;9.23;3.90;;;7.20;99.90;;;;;;5074740;28;20186;-77
2021/03/10 07:29:45;;;;;;;3.20;2.88;;;7.10;99.90;;;;;;5074772;28;20150;-76
2021/03/10 07:32:11;;;;;;;8.63;2.25;;;7.20;99.90;;;;;;5056482;28;20215;-76
2021/03/10 07:34:38;;;;;;;2.20;2.00;;;7.40;99.90;;;;;;5074664;28;20162;-76
2021/03/10 07:37:14;;;;;;;22.15;4.25;;;7.40;99.90;;;;;;5056698;28;20194;-76
2021/03/10 07:39:40;;;;;;;3.65;2.45;;;7.50;99.90;;;;;;5074513;28;20244;-78
2021/03/10 07:42:14;;;;;;;4.07;3.45;;;7.70;99.90;;;;;;5075099;28;20546;-77
2021/03/10 07:44:40;;;;;;;3.33;3.00;;;7.70;99.90;;;;;;5075164;28;20182;-77
2021/03/10 07:47:10;;;;;;;21.00;2.20;;;7.50;99.90;;;;;;5074471;28;20209;-77
2021/03/10 07:49:37;;;;;;;3.53;2.35;;;7.60;99.90;;;;;;5075086;28;20634;-77
2021/03/10 07:52:14;;;;;;;1.85;1.73;;;7.70;99.90;;;;;;5074784;28;20159;-77
2021/03/10 07:54:41;;;;;;;2.72;1.88;;;7.70;99.90;;;;;;5074440;28;20185;-77
2021/03/10 07:57:13;;;;;;;5.55;3.30;;;7.60;99.90;;;;;;5075348;28;20186;-78
2021/03/10 07:59:52;;;;;;;6.43;1.48;;;7.50;99.90;;;;;;5076588;28;20232;-78
2021/03/10 08:02:17;;;;;;;8.88;2.33;;;7.90;99.90;;;;;;5075922;28;20190;-76
2021/03/10 08:04:53;;;;;;;3.38;2.25;;;8.10;99.90;;;;;;5074575;28;20170;-76
2021/03/10 08:07:24;;;;;;;3.47;1.90;;;8.20;99.90;;;;;;5074279;28;20174;-76
2021/03/10 08:09:51;;;;;;;4.20;2.72;;;8.20;99.90;;;;;;5074439;28;20250;-77
2021/03/10 08:12:20;;;;;;;1.30;1.20;;;8.40;99.90;;;;;;5074061;28;20171;-77
2021/03/10 08:14:47;;;;;;;1.42;1.42;;;8.30;99.90;;;;;;5074041;28;20162;-76
2021/03/10 08:17:27;;;;;;;1.55;1.45;;;8.30;99.90;;;;;;5073611;28;20542;-76
2021/03/10 08:19:54;;;;;;;2.33;2.22;;;8.10;99.90;;;;;;5066835;28;20209;-76
2021/03/10 08:22:21;;;;;;;8.10;1.67;;;8.20;99.90;;;;;;5055394;28;20199;-77
2021/03/10 08:24:46;;;;;;;24.20;2.90;;;8.40;99.90;;;;;;5065967;28;20174;-77
2021/03/10 08:27:12;;;;;;;2.28;2.10;;;8.70;99.90;;;;;;5054287;28;20191;-78
2021/03/10 08:29:50;;;;;;;0.65;0.57;;;8.60;99.90;;;;;;5053955;28;20536;-77
2021/03/10 08:32:28;;;;;;;1.70;1.60;;;8.60;99.90;;;;;;5053595;28;20171;-78
2021/03/10 08:35:01;;;;;;;0.35;0.35;;;8.70;99.90;;;;;;5053362;28;20186;-77
2021/03/10 08:37:27;;;;;;;1.20;1.10;;;8.80;99.90;;;;;;5053178;28;20188;-77
2021/03/10 08:40:04;;;;;;;1.77;1.35;;;8.80;99.90;;;;;;5110923;27;20702;-78
2021/03/10 08:42:29;;;;;;;1.85;1.25;;;8.90;99.90;;;;;;5071799;28;20231;-78
2021/03/10 08:44:55;;;;;;;0.85;0.85;;;8.80;99.90;;;;;;5090060;28;20162;-76
2021/03/10 08:47:26;;;;;;;1.60;1.08;;;8.90;99.90;;;;;;5077187;28;20631;-76
2021/03/10 08:49:57;;;;;;;1.98;1.88;;;9.10;99.90;;;;;;5050674;28;20238;-76
2021/03/10 08:52:24;;;;;;;1.95;1.38;;;9.10;99.90;;;;;;5049386;28;20197;-78
2021/03/10 08:54:54;;;;;;;1.05;1.05;;;8.90;99.90;;;;;;5058654;28;20175;-77
2021/03/10 08:57:28;;;;;;;4.57;2.03;;;9.10;99.90;;;;;;5039775;28;20191;-77
2021/03/10 08:59:54;;;;;;;1.65;1.35;;;9.00;99.90;;;;;;5053004;28;20206;-76
2021/03/10 09:02:27;;;;;;;0.95;0.95;;;8.80;99.90;;;;;;5085180;28;20167;-76
2021/03/10 09:04:54;;;;;;;1.88;1.38;;;8.90;99.90;;;;;;5069798;28;20257;-76
2021/03/10 09:07:20;;;;;;;2.42;1.40;;;8.90;99.90;;;;;;5069624;28;20187;-76
2021/03/10 09:09:47;;;;;;;1.27;1.15;;;9.00;99.90;;;;;;5069885;28;20610;-77
2021/03/10 09:12:14;;;;;;;4.78;1.55;;;9.20;99.90;;;;;;5069407;28;20210;-76
2021/03/10 09:14:41;;;;;;;0.52;0.52;;;9.50;99.90;;;;;;5051612;28;20189;-76
2021/03/10 09:17:07;;;;;;;1.35;0.88;;;9.60;99.90;;;;;;5069111;28;20309;-76
2021/03/10 09:19:46;;;;;;;0.88;0.88;;;9.70;99.90;;;;;;5052305;28;20195;-77
2021/03/10 09:22:20;;;;;;;2.47;1.83;;;9.90;99.90;;;;;;5049698;28;20174;-76
2021/03/10 09:25:07;;;;;;;1.50;1.40;;;9.90;99.90;;;;;;5049467;28;20201;-77
2021/03/10 09:27:33;;;;;;;1.58;1.48;;;9.90;99.90;;;;;;5048042;28;20214;-78
2021/03/10 09:30:07;;;;;;;5.97;2.40;;;10.00;99.90;;;;;;5032005;28;20160;-77
2021/03/10 09:32:43;;;;;;;0.82;0.82;;;10.10;99.90;;;;;;5049327;28;20697;-81
2021/03/10 09:35:21;;;;;;;1.65;1.55;;;10.10;99.90;;;;;;5031644;28;20167;-77
2021/03/10 09:37:59;;;;;;;0.82;0.82;;;10.00;99.90;;;;;;5048881;28;20194;-85
2021/03/10 09:40:35;;;;;;;5.68;1.50;;;9.80;99.90;;;;;;5049279;28;20324;-78
2021/03/10 09:43:10;;;;;;;1.50;1.40;;;10.00;99.90;;;;;;5049577;28;20167;-78
2021/03/10 09:45:38;;;;;;;3.50;1.30;;;10.20;99.90;;;;;;5048803;28;20627;-78
2021/03/10 09:48:06;;;;;;;8.52;2.58;;;10.30;99.90;;;;;;5049098;28;20689;-77
2021/03/10 09:50:33;;;;;;;1.25;0.88;;;10.30;99.90;;;;;;5039147;28;20720;-77
2021/03/10 09:52:59;;;;;;;0.93;0.93;;;10.40;99.90;;;;;;5034127;28;20164;-77
2021/03/10 09:55:26;;;;;;;2.97;1.27;;;10.50;99.90;;;;;;5034994;28;20303;-78
2021/03/10 09:58:05;;;;;;;1.65;1.02;;;10.70;99.90;;;;;;5035569;28;20695;-77
2021/03/10 10:00:32;;;;;;;1.00;1.00;;;10.60;99.90;;;;;;5035837;28;20634;-77
2021/03/10 10:02:58;;;;;;;1.50;1.50;;;10.70;99.90;;;;;;5035339;28;20203;-76
2021/03/10 10:05:34;;;;;;;4.65;1.88;;;10.90;99.90;;;;;;5035150;28;20253;-77
2021/03/10 10:08:02;;;;;;;2.58;1.63;;;11.00;99.90;;;;;;5037822;28;20191;-77
2021/03/10 10:10:29;;;;;;;1.55;1.50;;;11.10;99.90;;;;;;5039609;28;20277;-77
2021/03/10 10:12:55;;;;;;;4.15;1.92;;;11.00;99.90;;;;;;5035021;28;20172;-77
2021/03/10 10:15:26;;;;;;;0.77;0.77;;;11.10;99.90;;;;;;5035334;28;20680;-77
2021/03/10 10:17:54;;;;;;;2.72;1.23;;;11.00;99.90;;;;;;5034649;28;20194;-77
2021/03/10 10:20:23;;;;;;;2.65;1.25;;;10.80;99.90;;;;;;5055209;28;20254;-76
2021/03/10 10:22:49;;;;;;;0.88;0.85;;;11.00;99.90;;;;;;5074561;28;20163;-76
2021/03/10 10:25:18;;;;;;;1.20;1.10;;;10.90;99.90;;;;;;5074896;28;20186;-76
2021/03/10 10:27:46;;;;;;;3.13;2.83;;;10.80;99.90;;;;;;5073788;28;20201;-77
2021/03/10 10:30:14;;;;;;;2.22;2.03;;;11.00;99.90;;;;;;5073680;28;20228;-77
2021/03/10 10:32:44;;;;;;;7.68;2.20;;;11.20;99.90;;;;;;5075008;28;20194;-77
2021/03/10 10:35:11;;;;;;;1.73;1.40;;;11.00;99.90;;;;;;5074883;28;20170;-77
2021/03/10 10:37:36;;;;;;;1.30;1.20;;;10.90;99.90;;;;;;5072932;28;20182;-76
2021/03/10 10:40:06;;;;;;;3.42;2.38;;;10.90;99.90;;;;;;5036657;28;20193;-77
2021/03/10 10:42:31;;;;;;;2.25;2.15;;;10.80;99.90;;;;;;5037267;28;20207;-77
2021/03/10 10:44:57;;;;;;;3.25;1.88;;;11.00;99.90;;;;;;5036761;28;20191;-76
2021/03/10 10:47:23;;;;;;;2.45;0.77;;;11.10;99.90;;;;;;5054491;28;20190;-76
2021/03/10 10:49:49;;;;;;;0.90;0.90;;;11.10;99.90;;;;;;4999589;28;20172;-77
2021/03/10 10:52:15;;;;;;;0.85;0.85;;;11.40;99.90;;;;;;4996327;28;20253;-77
2021/03/10 10:54:40;;;;;;;1.80;1.70;;;11.70;99.90;;;;;;5014659;28;20169;-77
2021/03/10 10:57:06;;;;;;;3.53;2.00;;;11.60;99.90;;;;;;5014424;28;20195;-78
2021/03/10 10:59:32;;;;;;;1.15;1.05;;;11.50;99.90;;;;;;5014576;28;20615;-76
2021/03/10 11:01:58;;;;;;;1.92;1.00;;;11.50;99.90;;;;;;5013876;28;20164;-76
2021/03/10 11:04:23;;;;;;;1.80;1.70;;;11.40;99.90;;;;;;5014333;28;20165;-76
2021/03/10 11:06:49;;;;;;;5.13;2.42;;;11.30;99.90;;;;;;5014391;28;20315;-77
2021/03/10 11:09:15;;;;;;;1.15;1.15;;;11.20;99.90;;;;;;4997057;28;20238;-78
2021/03/10 11:11:40;;;;;;;4.20;3.38;;;11.40;99.90;;;;;;5014867;28;20604;-75
2021/03/10 11:14:06;;;;;;;0.65;0.65;;;11.60;99.90;;;;;;5014718;28;20569;-77
2021/03/10 11:16:31;;;;;;;0.90;0.90;;;11.70;99.90;;;;;;5016803;28;20184;-81
2021/03/10 11:18:57;;;;;;;4.95;3.05;;;11.80;99.90;;;;;;4997613;28;20216;-81
2021/03/10 11:21:23;;;;;;;3.00;1.95;;;12.10;99.90;;;;;;5014798;28;20168;-76
2021/03/10 11:23:49;;;;;;;1.85;1.65;;;12.20;99.90;;;;;;5014343;28;20176;-77
2021/03/10 11:26:15;;;;;;;1.58;1.48;;;12.00;99.90;;;;;;5013539;28;20339;-78
2021/03/10 11:28:40;;;;;;;1.80;1.70;;;12.30;99.90;;;;;;5013617;28;20196;-77
2021/03/10 11:31:07;;;;;;;7.85;2.80;;;12.20;99.90;;;;;;4979899;28;20172;-76
2021/03/10 11:33:34;;;;;;;6.43;2.35;;;12.30;99.90;;;;;;5013577;28;20160;-77
2021/03/10 11:36:00;;;;;;;3.05;2.35;;;12.40;99.90;;;;;;5013806;28;20177;-77
2021/03/10 11:38:25;;;;;;;1.95;1.48;;;12.30;99.90;;;;;;5020727;28;20234;-77
2021/03/10 11:40:51;;;;;;;5.45;1.80;;;12.30;99.90;;;;;;5034272;28;20595;-77
2021/03/10 11:43:17;;;;;;;3.45;3.15;;;12.20;99.90;;;;;;5033641;28;20251;-76
2021/03/10 11:45:43;;;;;;;2.30;1.30;;;12.40;99.90;;;;;;5034338;28;20171;-78
2021/03/10 11:48:09;;;;;;;2.30;1.85;;;12.50;99.90;;;;;;5033387;28;20554;-80
2021/03/10 11:50:37;;;;;;;15.60;2.85;;;12.50;99.90;;;;;;5033467;28;20164;-76
2021/03/10 11:53:04;;;;;;;2.08;1.90;;;12.50;99.90;;;;;;5032973;28;20242;-76
2021/03/10 11:55:31;;;;;;;3.03;2.08;;;12.50;99.90;;;;;;5034847;28;20652;-77
2021/03/10 11:57:56;;;;;;;2.88;2.15;;;12.30;99.90;;;;;;5033089;28;20188;-76
2021/03/10 12:00:22;;;;;;;2.72;2.25;;;12.50;99.90;;;;;;5032879;28;20156;-77
2021/03/10 12:02:48;;;;;;;12.13;1.48;;;12.70;99.90;;;;;;5033146;28;20472;-76
2021/03/10 12:05:16;;;;;;;3.35;2.20;;;12.60;99.90;;;;;;5031919;28;20259;-76
2021/03/10 12:07:41;;;;;;;2.03;1.77;;;12.40;99.90;;;;;;5033019;28;20206;-77
2021/03/10 12:10:07;;;;;;;5.45;2.28;;;12.50;99.90;;;;;;5033131;28;20600;-76
2021/03/10 12:12:33;;;;;;;4.00;3.53;;;12.80;99.90;;;;;;5032843;28;20168;-76
2021/03/10 12:14:58;;;;;;;2.97;2.25;;;12.90;99.90;;;;;;5033016;28;20658;-77
2021/03/10 12:17:24;;;;;;;3.72;1.80;;;12.90;99.90;;;;;;5031812;28;20215;-77
2021/03/10 12:19:50;;;;;;;2.78;2.58;;;13.00;99.90;;;;;;5032477;28;20196;-76
2021/03/10 12:22:15;;;;;;;2.85;2.60;;;13.10;99.90;;;;;;5032590;28;20164;-76
2021/03/10 12:24:44;;;;;;;5.70;2.72;;;12.90;99.90;;;;;;5033210;28;20172;-79
2021/03/10 12:27:11;;;;;;;2.83;1.58;;;12.60;99.90;;;;;;5033921;28;20544;-77
2021/03/10 12:29:36;;;;;;;12.10;1.92;;;12.70;99.90;;;;;;5046916;28;20206;-77
2021/03/10 12:32:03;;;;;;;6.60;3.25;;;12.80;99.90;;;;;;5053993;28;20203;-77
2021/03/10 12:34:28;;;;;;;3.00;1.90;;;13.20;99.90;;;;;;5052867;28;20159;-76
2021/03/10 12:36:54;;;;;;;1.88;1.70;;;12.80;99.90;;;;;;5051158;28;20240;-76
2021/03/10 12:39:19;;;;;;;12.05;2.33;;;12.80;99.90;;;;;;5038018;28;20785;-75
2021/03/10 12:41:45;;;;;;;1.15;1.10;;;13.10;99.90;;;;;;5032866;28;20176;-75
2021/03/10 12:44:11;;;;;;;5.38;2.63;;;13.30;99.90;;;;;;5032032;28;20219;-75
2021/03/10 12:46:36;;;;;;;9.50;2.88;;;13.20;99.90;;;;;;5014422;28;20196;-77
2021/03/10 12:49:02;;;;;;;1.60;1.50;;;13.50;99.90;;;;;;5032353;28;20172;-76
2021/03/10 12:51:27;;;;;;;2.42;1.58;;;13.30;99.90;;;;;;5033094;28;20171;-75
2021/03/10 12:53:54;;;;;;;1.98;1.65;;;13.20;99.90;;;;;;5032984;28;20160;-76
2021/03/10 12:56:19;;;;;;;12.38;2.22;;;13.20;99.90;;;;;;5034318;28;20234;-76